Time;durP1;ratioP1;P1;durP2;ratioP2;P2;SDS_P1;SDS_P2;PMS_P1;PMS_P2;Temp;Humidity;BMP_temperature;BMP_pressure;BME280_temperature;BME280_humidity;BME280_pressure;Samples;Min_cycle;Max_cycle;Signal;HPM_P1;HPM_P2
2023/05/09 00:01:12;;;;;;;0.90;0.90;;;;;;;;;;5064402;27;58435;-67
2023/05/09 00:03:37;;;;;;;0.90;0.90;;;;;;;;;;5062145;27;58490;-67
2023/05/09 00:06:03;;;;;;;0.80;0.80;;;;;;;;;;5062836;27;58210;-68
2023/05/09 00:08:28;;;;;;;0.77;0.77;;;;;;;;;;5059936;27;59068;-68
2023/05/09 00:10:53;;;;;;;1.13;1.03;;;;;;;;;;5062385;27;58273;-67
2023/05/09 00:13:18;;;;;;;0.90;0.90;;;;;;;;;;5062756;27;57530;-68
2023/05/09 00:15:43;;;;;;;1.03;0.90;;;;;;;;;;5065326;27;58596;-67
2023/05/09 00:18:10;;;;;;;1.63;1.53;;;;;;;;;;5062935;27;57929;-67
2023/05/09 00:20:35;;;;;;;0.90;0.90;;;;;;;;;;5064303;27;58444;-67
2023/05/09 00:23:00;;;;;;;1.93;1.10;;;;;;;;;;5063472;27;59292;-68
2023/05/09 00:25:25;;;;;;;0.73;0.73;;;;;;;;;;5061166;27;57991;-67
2023/05/09 00:27:50;;;;;;;0.80;0.80;;;;;;;;;;5064995;27;57812;-68
2023/05/09 00:30:15;;;;;;;0.90;0.90;;;;;;;;;;5062924;27;57788;-67
2023/05/09 00:32:41;;;;;;;0.77;0.77;;;;;;;;;;5063566;27;58278;-68
2023/05/09 00:35:06;;;;;;;1.20;1.10;;;;;;;;;;5061219;27;58985;-67
2023/05/09 00:37:31;;;;;;;0.82;0.70;;;;;;;;;;5061434;27;57889;-67
2023/05/09 00:39:57;;;;;;;0.80;0.80;;;;;;;;;;5065638;27;58093;-68
2023/05/09 00:42:22;;;;;;;0.55;0.55;;;;;;;;;;5062692;27;58193;-67
2023/05/09 00:44:47;;;;;;;0.90;0.90;;;;;;;;;;5063877;27;58273;-65
2023/05/09 00:47:12;;;;;;;0.90;0.90;;;;;;;;;;5063576;27;58156;-68
2023/05/09 00:49:37;;;;;;;1.10;1.00;;;;;;;;;;5061632;27;58081;-67
2023/05/09 00:52:03;;;;;;;1.00;1.00;;;;;;;;;;5059022;27;57960;-66
2023/05/09 00:54:29;;;;;;;0.90;0.90;;;;;;;;;;5062391;27;58178;-68
2023/05/09 00:56:54;;;;;;;0.82;0.82;;;;;;;;;;5063293;27;58422;-68
2023/05/09 00:59:20;;;;;;;0.87;0.83;;;;;;;;;;5061941;27;58154;-68
2023/05/09 01:01:45;;;;;;;1.25;1.15;;;;;;;;;;5062473;27;58174;-67
2023/05/09 01:04:11;;;;;;;1.00;0.90;;;;;;;;;;5063028;27;57906;-68
2023/05/09 01:06:55;;;;;;;1.55;1.45;;;;;;;;;;5063448;27;58171;-67
2023/05/09 01:09:39;;;;;;;1.00;0.90;;;;;;;;;;5061007;27;59132;-68
2023/05/09 01:12:11;;;;;;;0.75;0.73;;;;;;;;;;5063053;27;57977;-68
2023/05/09 01:14:36;;;;;;;0.80;0.80;;;;;;;;;;5060642;27;58331;-67
2023/05/09 01:17:10;;;;;;;0.80;0.80;;;;;;;;;;5061213;27;58127;-67
2023/05/09 01:19:41;;;;;;;0.80;0.80;;;;;;;;;;5062711;27;58215;-67
2023/05/09 01:22:07;;;;;;;0.70;0.70;;;;;;;;;;5063184;27;58065;-68
2023/05/09 01:24:40;;;;;;;0.73;0.73;;;;;;;;;;5064318;27;58377;-67
2023/05/09 01:27:21;;;;;;;0.80;0.80;;;;;;;;;;5061235;27;58483;-67
2023/05/09 01:29:46;;;;;;;0.93;0.93;;;;;;;;;;5064930;27;58621;-67
2023/05/09 01:32:14;;;;;;;0.80;0.80;;;;;;;;;;5062995;27;58006;-68
2023/05/09 01:34:41;;;;;;;0.80;0.75;;;;;;;;;;5064352;27;58389;-67
2023/05/09 01:37:07;;;;;;;0.88;0.85;;;;;;;;;;5060092;27;57982;-67
2023/05/09 01:39:33;;;;;;;1.00;0.90;;;;;;;;;;5063232;27;58143;-67
2023/05/09 01:42:00;;;;;;;0.73;0.73;;;;;;;;;;5062410;27;58418;-68
2023/05/09 01:44:30;;;;;;;0.80;0.80;;;;;;;;;;5060964;27;61671;-67
2023/05/09 01:46:56;;;;;;;0.70;0.70;;;;;;;;;;5060893;27;58539;-68
2023/05/09 01:49:21;;;;;;;0.80;0.75;;;;;;;;;;5058963;27;58215;-67
2023/05/09 01:51:47;;;;;;;0.80;0.80;;;;;;;;;;5063042;27;58163;-67
2023/05/09 01:54:12;;;;;;;1.05;1.05;;;;;;;;;;5061639;27;57988;-68
2023/05/09 01:56:39;;;;;;;0.43;0.43;;;;;;;;;;5060050;27;58084;-67
2023/05/09 01:59:05;;;;;;;0.73;0.73;;;;;;;;;;5060938;27;58316;-68
2023/05/09 02:01:31;;;;;;;0.75;0.75;;;;;;;;;;5059004;27;58483;-68
2023/05/09 02:03:56;;;;;;;0.63;0.63;;;;;;;;;;5058591;28;58252;-67
2023/05/09 02:06:22;;;;;;;0.60;0.60;;;;;;;;;;5058201;27;58737;-67
2023/05/09 02:08:47;;;;;;;0.52;0.52;;;;;;;;;;5059177;27;58324;-67
2023/05/09 02:11:13;;;;;;;0.60;0.60;;;;;;;;;;5073411;27;57865;-68
2023/05/09 02:13:38;;;;;;;0.67;0.67;;;;;;;;;;5059442;27;57998;-67
2023/05/09 02:16:05;;;;;;;0.70;0.70;;;;;;;;;;5061452;27;58361;-67
2023/05/09 02:18:31;;;;;;;0.75;0.70;;;;;;;;;;5063080;27;59047;-68
2023/05/09 02:20:56;;;;;;;0.60;0.60;;;;;;;;;;5059548;27;58349;-66
2023/05/09 02:23:21;;;;;;;0.73;0.73;;;;;;;;;;5060865;27;57864;-67
2023/05/09 02:25:47;;;;;;;1.80;0.97;;;;;;;;;;5060074;27;58355;-67
2023/05/09 02:28:12;;;;;;;0.70;0.70;;;;;;;;;;5061092;27;58386;-68
2023/05/09 02:30:40;;;;;;;1.17;0.77;;;;;;;;;;5061266;27;58165;-67
2023/05/09 02:33:06;;;;;;;0.80;0.80;;;;;;;;;;5059630;27;57907;-67
2023/05/09 02:35:31;;;;;;;0.80;0.80;;;;;;;;;;5061659;27;58522;-67
2023/05/09 02:37:57;;;;;;;0.88;0.88;;;;;;;;;;5062162;27;58112;-67
2023/05/09 02:40:23;;;;;;;0.65;0.65;;;;;;;;;;5059806;27;58513;-67
2023/05/09 02:42:48;;;;;;;0.70;0.70;;;;;;;;;;5060268;27;58854;-67
2023/05/09 02:45:13;;;;;;;0.53;0.53;;;;;;;;;;5062228;27;58057;-67
2023/05/09 02:47:39;;;;;;;0.90;0.90;;;;;;;;;;5061596;27;58152;-67
2023/05/09 02:50:04;;;;;;;0.80;0.80;;;;;;;;;;5060021;27;57973;-67
2023/05/09 02:52:30;;;;;;;0.82;0.82;;;;;;;;;;5062294;27;57763;-68
2023/05/09 02:54:55;;;;;;;0.63;0.63;;;;;;;;;;5061471;27;58070;-67
2023/05/09 02:57:20;;;;;;;0.83;0.80;;;;;;;;;;5059608;27;58565;-67
2023/05/09 02:59:45;;;;;;;0.80;0.80;;;;;;;;;;5060116;27;58265;-65
2023/05/09 03:02:10;;;;;;;0.90;0.70;;;;;;;;;;5059293;27;58191;-67
2023/05/09 03:04:35;;;;;;;0.90;0.90;;;;;;;;;;5060765;27;58135;-67
2023/05/09 03:07:01;;;;;;;0.80;0.80;;;;;;;;;;5060908;27;57823;-65
2023/05/09 03:09:26;;;;;;;0.70;0.70;;;;;;;;;;5059439;27;58597;-67
2023/05/09 03:11:51;;;;;;;0.90;0.90;;;;;;;;;;5059006;27;58554;-67
2023/05/09 03:14:17;;;;;;;0.43;0.43;;;;;;;;;;5060110;27;58576;-67
2023/05/09 03:16:42;;;;;;;0.63;0.63;;;;;;;;;;5062643;28;58929;-67
2023/05/09 03:19:07;;;;;;;0.80;0.80;;;;;;;;;;5060425;27;58249;-68
2023/05/09 03:21:32;;;;;;;0.80;0.80;;;;;;;;;;5058677;27;57894;-67
2023/05/09 03:23:57;;;;;;;2.00;0.70;;;;;;;;;;5059383;28;57989;-67
2023/05/09 03:26:23;;;;;;;2.10;0.80;;;;;;;;;;5058187;27;58206;-67
2023/05/09 03:28:48;;;;;;;0.60;0.60;;;;;;;;;;5058881;27;58095;-68
2023/05/09 03:31:13;;;;;;;0.70;0.70;;;;;;;;;;5061350;27;57753;-68
2023/05/09 03:33:38;;;;;;;0.63;0.63;;;;;;;;;;5061851;27;57826;-67
2023/05/09 03:36:04;;;;;;;0.60;0.60;;;;;;;;;;5059372;27;58376;-66
2023/05/09 03:38:29;;;;;;;0.70;0.70;;;;;;;;;;5060300;27;57895;-68
2023/05/09 03:40:54;;;;;;;0.63;0.63;;;;;;;;;;5060820;27;58175;-67
2023/05/09 03:43:19;;;;;;;0.73;0.73;;;;;;;;;;5056431;27;57872;-67
2023/05/09 03:45:44;;;;;;;0.75;0.70;;;;;;;;;;5061465;27;58242;-68
2023/05/09 03:48:10;;;;;;;0.70;0.70;;;;;;;;;;5058000;27;58642;-67
2023/05/09 03:50:35;;;;;;;0.70;0.70;;;;;;;;;;5060319;27;58137;-67
2023/05/09 03:53:01;;;;;;;0.50;0.50;;;;;;;;;;5060752;27;58339;-67
2023/05/09 03:55:26;;;;;;;1.00;0.77;;;;;;;;;;5057985;27;59564;-68
2023/05/09 03:57:51;;;;;;;0.90;0.90;;;;;;;;;;5060814;28;58158;-67
2023/05/09 04:00:16;;;;;;;0.73;0.60;;;;;;;;;;5057979;27;58335;-67
2023/05/09 04:02:42;;;;;;;0.57;0.50;;;;;;;;;;5062730;27;57836;-67
2023/05/09 04:05:07;;;;;;;0.63;0.63;;;;;;;;;;5058659;27;58654;-67
2023/05/09 04:07:32;;;;;;;1.23;0.60;;;;;;;;;;5058647;27;58434;-67
2023/05/09 04:09:58;;;;;;;0.60;0.60;;;;;;;;;;5061831;27;58220;-67
2023/05/09 04:12:23;;;;;;;1.15;1.00;;;;;;;;;;5060839;27;58058;-67
2023/05/09 04:14:48;;;;;;;0.50;0.50;;;;;;;;;;5058528;27;58232;-68
2023/05/09 04:17:14;;;;;;;0.50;0.50;;;;;;;;;;5063574;27;57862;-68
2023/05/09 04:19:39;;;;;;;0.50;0.50;;;;;;;;;;5057216;27;57842;-67
2023/05/09 04:22:04;;;;;;;0.70;0.70;;;;;;;;;;5061917;27;58250;-66
2023/05/09 04:24:29;;;;;;;0.53;0.53;;;;;;;;;;5061727;27;58311;-66
2023/05/09 04:26:55;;;;;;;0.55;0.50;;;;;;;;;;5060168;27;58394;-66
2023/05/09 04:29:20;;;;;;;0.60;0.60;;;;;;;;;;5062119;27;58332;-68
2023/05/09 04:31:45;;;;;;;3.40;0.87;;;;;;;;;;5063648;27;58439;-68
2023/05/09 04:34:13;;;;;;;0.70;0.70;;;;;;;;;;5053374;27;58133;-68
2023/05/09 04:36:38;;;;;;;0.60;0.60;;;;;;;;;;5060930;27;58210;-66
2023/05/09 04:39:04;;;;;;;1.55;0.80;;;;;;;;;;5063361;27;58237;-67
2023/05/09 04:41:29;;;;;;;1.30;1.00;;;;;;;;;;5060106;27;58293;-67
2023/05/09 04:43:55;;;;;;;1.48;0.95;;;;;;;;;;5063811;27;58299;-68
2023/05/09 04:46:20;;;;;;;0.67;0.50;;;;;;;;;;5063498;27;58133;-67
2023/05/09 04:48:45;;;;;;;1.02;0.77;;;;;;;;;;5064049;28;58105;-67
2023/05/09 04:51:10;;;;;;;1.10;0.82;;;;;;;;;;5063668;27;57980;-67
2023/05/09 04:53:41;;;;;;;0.60;0.60;;;;;;;;;;5063042;27;58010;-68
2023/05/09 04:56:06;;;;;;;0.70;0.70;;;;;;;;;;5064913;27;58109;-67
2023/05/09 04:58:33;;;;;;;0.63;0.60;;;;;;;;;;5067591;27;58262;-67
2023/05/09 05:00:58;;;;;;;1.05;0.50;;;;;;;;;;5067057;27;58675;-67
2023/05/09 05:03:23;;;;;;;0.70;0.70;;;;;;;;;;5066474;27;58264;-67
2023/05/09 05:05:48;;;;;;;0.60;0.60;;;;;;;;;;5065186;27;58134;-67
2023/05/09 05:08:13;;;;;;;1.65;0.85;;;;;;;;;;5066992;27;58046;-67
2023/05/09 05:10:39;;;;;;;0.83;0.60;;;;;;;;;;5067242;27;58506;-68
2023/05/09 05:13:04;;;;;;;0.70;0.50;;;;;;;;;;5066769;27;58377;-67
2023/05/09 05:15:29;;;;;;;0.60;0.60;;;;;;;;;;5067233;27;58037;-67
2023/05/09 05:17:54;;;;;;;0.80;0.63;;;;;;;;;;5066798;27;58296;-68
2023/05/09 05:20:20;;;;;;;0.70;0.50;;;;;;;;;;5065386;27;58558;-67
2023/05/09 05:22:45;;;;;;;0.75;0.75;;;;;;;;;;5067640;27;57948;-67
2023/05/09 05:25:10;;;;;;;1.23;1.05;;;;;;;;;;5065657;27;57837;-67
2023/05/09 05:27:35;;;;;;;0.80;0.80;;;;;;;;;;5067315;27;58570;-67
2023/05/09 05:30:00;;;;;;;1.53;0.47;;;;;;;;;;5066855;27;58372;-67
2023/05/09 05:32:26;;;;;;;0.60;0.60;;;;;;;;;;5065856;27;59337;-68
2023/05/09 05:34:51;;;;;;;0.73;0.50;;;;;;;;;;5065481;27;58323;-67
2023/05/09 05:37:16;;;;;;;0.40;0.40;;;;;;;;;;5066574;27;58303;-68
2023/05/09 05:39:41;;;;;;;0.43;0.43;;;;;;;;;;5066866;27;58650;-67
2023/05/09 05:42:06;;;;;;;0.60;0.60;;;;;;;;;;5067721;27;58209;-68
2023/05/09 05:44:31;;;;;;;0.93;0.93;;;;;;;;;;5065990;27;58305;-67
2023/05/09 05:46:56;;;;;;;0.85;0.85;;;;;;;;;;5066480;27;58310;-68
2023/05/09 05:49:23;;;;;;;0.75;0.70;;;;;;;;;;5067012;27;58037;-67
2023/05/09 05:51:49;;;;;;;1.75;0.60;;;;;;;;;;5065411;27;60076;-67
2023/05/09 05:54:14;;;;;;;0.60;0.60;;;;;;;;;;5065995;27;58480;-67
2023/05/09 05:56:39;;;;;;;0.70;0.70;;;;;;;;;;5064595;27;59232;-68
2023/05/09 05:59:04;;;;;;;1.13;0.77;;;;;;;;;;5065319;27;58692;-68
2023/05/09 06:01:29;;;;;;;0.73;0.73;;;;;;;;;;5066155;27;57981;-67
2023/05/09 06:03:55;;;;;;;0.60;0.60;;;;;;;;;;5066675;27;58010;-67
2023/05/09 06:06:20;;;;;;;0.90;0.70;;;;;;;;;;5064487;27;58150;-67
2023/05/09 06:08:46;;;;;;;0.77;0.77;;;;;;;;;;5066278;27;58090;-67
2023/05/09 06:11:11;;;;;;;0.57;0.40;;;;;;;;;;5064777;27;57865;-67
2023/05/09 06:13:36;;;;;;;0.93;0.87;;;;;;;;;;5066054;27;58383;-67
2023/05/09 06:16:02;;;;;;;0.55;0.55;;;;;;;;;;5065354;27;57931;-67
2023/05/09 06:18:27;;;;;;;0.73;0.73;;;;;;;;;;5064192;27;58149;-67
2023/05/09 06:20:55;;;;;;;0.40;0.40;;;;;;;;;;5065428;27;58273;-67
2023/05/09 06:23:21;;;;;;;0.80;0.80;;;;;;;;;;5064800;27;57969;-67
2023/05/09 06:25:46;;;;;;;1.08;0.77;;;;;;;;;;5064239;27;58461;-67
2023/05/09 06:28:11;;;;;;;0.95;0.95;;;;;;;;;;5061321;27;58203;-66
2023/05/09 06:30:36;;;;;;;0.50;0.50;;;;;;;;;;5062294;27;59066;-68
2023/05/09 06:33:02;;;;;;;0.82;0.82;;;;;;;;;;5064035;27;58670;-67
2023/05/09 06:35:27;;;;;;;0.50;0.50;;;;;;;;;;5061395;27;58188;-68
2023/05/09 06:37:52;;;;;;;0.85;0.65;;;;;;;;;;5063295;27;58260;-67
2023/05/09 06:40:17;;;;;;;0.80;0.77;;;;;;;;;;5063275;27;57873;-65
2023/05/09 06:42:43;;;;;;;0.50;0.50;;;;;;;;;;5065142;28;58117;-67
2023/05/09 06:45:08;;;;;;;0.70;0.70;;;;;;;;;;5061881;27;58674;-67
2023/05/09 06:47:33;;;;;;;0.73;0.50;;;;;;;;;;5064491;27;58220;-67
2023/05/09 06:49:58;;;;;;;0.90;0.90;;;;;;;;;;5061475;27;59549;-67
2023/05/09 06:52:23;;;;;;;0.77;0.77;;;;;;;;;;5062030;27;58358;-67
2023/05/09 06:54:49;;;;;;;0.63;0.60;;;;;;;;;;5065285;27;57692;-67
2023/05/09 06:57:14;;;;;;;0.60;0.60;;;;;;;;;;5064748;27;58474;-67
2023/05/09 06:59:39;;;;;;;1.00;0.90;;;;;;;;;;5064664;27;58093;-67
2023/05/09 07:02:04;;;;;;;0.60;0.60;;;;;;;;;;5065559;27;58229;-67
2023/05/09 07:04:29;;;;;;;0.60;0.60;;;;;;;;;;5062368;28;59866;-67
2023/05/09 07:06:54;;;;;;;0.77;0.77;;;;;;;;;;5065762;27;58591;-67
2023/05/09 07:09:19;;;;;;;0.80;0.80;;;;;;;;;;5065347;27;58247;-67
2023/05/09 07:11:45;;;;;;;0.60;0.60;;;;;;;;;;5065133;27;58065;-66
2023/05/09 07:14:10;;;;;;;0.63;0.63;;;;;;;;;;5065120;27;58225;-65
2023/05/09 07:16:35;;;;;;;0.60;0.60;;;;;;;;;;5064139;27;58537;-67
2023/05/09 07:19:00;;;;;;;0.60;0.60;;;;;;;;;;5065860;27;57930;-65
2023/05/09 07:21:25;;;;;;;0.85;0.85;;;;;;;;;;5065894;27;58741;-67
2023/05/09 07:23:50;;;;;;;0.70;0.70;;;;;;;;;;5064469;27;58898;-67
2023/05/09 07:26:16;;;;;;;0.75;0.75;;;;;;;;;;5063572;27;57764;-68
2023/05/09 07:28:41;;;;;;;0.80;0.80;;;;;;;;;;5065229;27;58150;-67
2023/05/09 07:31:08;;;;;;;0.83;0.80;;;;;;;;;;5066666;27;57776;-67
2023/05/09 07:33:33;;;;;;;1.25;1.15;;;;;;;;;;5063004;27;59447;-66
2023/05/09 07:35:58;;;;;;;0.60;0.60;;;;;;;;;;5061678;27;58388;-67
2023/05/09 07:38:23;;;;;;;0.77;0.70;;;;;;;;;;5059994;27;58497;-67
2023/05/09 07:40:49;;;;;;;1.35;0.77;;;;;;;;;;5061616;27;58336;-67
2023/05/09 07:43:14;;;;;;;0.77;0.77;;;;;;;;;;5062052;27;58391;-67
2023/05/09 07:45:39;;;;;;;0.70;0.70;;;;;;;;;;5064627;27;58311;-67
2023/05/09 07:48:04;;;;;;;1.13;1.03;;;;;;;;;;5064414;27;59346;-67
2023/05/09 07:50:30;;;;;;;0.67;0.67;;;;;;;;;;5064879;27;59842;-66
2023/05/09 07:52:55;;;;;;;0.80;0.80;;;;;;;;;;5067227;27;58895;-67
2023/05/09 07:55:20;;;;;;;0.80;0.80;;;;;;;;;;5066872;27;58066;-68
2023/05/09 07:57:45;;;;;;;0.90;0.90;;;;;;;;;;5069648;27;58437;-67
2023/05/09 08:00:11;;;;;;;1.02;0.90;;;;;;;;;;5068994;27;58359;-67
2023/05/09 08:02:36;;;;;;;1.15;1.05;;;;;;;;;;5067833;27;57830;-68
2023/05/09 08:05:01;;;;;;;0.68;0.68;;;;;;;;;;5068250;27;57825;-67
2023/05/09 08:07:27;;;;;;;0.75;0.73;;;;;;;;;;5066649;27;58170;-67
2023/05/09 08:09:52;;;;;;;0.80;0.80;;;;;;;;;;5066951;28;58190;-67
2023/05/09 08:12:17;;;;;;;0.60;0.60;;;;;;;;;;5069264;27;58316;-67
2023/05/09 08:14:42;;;;;;;1.00;1.00;;;;;;;;;;5065616;27;58052;-67
2023/05/09 08:17:07;;;;;;;0.73;0.73;;;;;;;;;;5066989;27;58195;-68
2023/05/09 08:19:32;;;;;;;0.83;0.80;;;;;;;;;;5068014;27;58518;-67
2023/05/09 08:21:58;;;;;;;0.65;0.65;;;;;;;;;;5067752;27;58344;-67
2023/05/09 08:24:23;;;;;;;0.80;0.80;;;;;;;;;;5066828;27;57927;-67
2023/05/09 08:26:48;;;;;;;0.82;0.82;;;;;;;;;;5067648;27;58048;-67
2023/05/09 08:29:13;;;;;;;1.00;1.00;;;;;;;;;;5066872;27;58040;-67
2023/05/09 08:31:38;;;;;;;0.82;0.82;;;;;;;;;;5068372;27;57851;-67
2023/05/09 08:34:03;;;;;;;1.25;1.15;;;;;;;;;;5065636;27;58096;-67
2023/05/09 08:36:29;;;;;;;1.15;1.00;;;;;;;;;;5067721;27;58561;-67
2023/05/09 08:38:54;;;;;;;1.40;1.30;;;;;;;;;;5067342;27;57955;-67
2023/05/09 08:41:22;;;;;;;0.80;0.80;;;;;;;;;;5066802;27;57980;-67
2023/05/09 08:43:48;;;;;;;1.05;0.95;;;;;;;;;;5068126;27;57938;-67
2023/05/09 08:46:14;;;;;;;1.38;1.10;;;;;;;;;;5067183;27;58123;-67
2023/05/09 08:48:40;;;;;;;1.10;1.10;;;;;;;;;;5067430;27;58054;-66
2023/05/09 08:51:06;;;;;;;1.20;1.15;;;;;;;;;;5067056;27;58180;-67
2023/05/09 08:53:32;;;;;;;0.85;0.85;;;;;;;;;;5067743;27;58038;-67
2023/05/09 08:55:58;;;;;;;1.00;1.00;;;;;;;;;;5065511;27;58389;-67
2023/05/09 08:58:23;;;;;;;0.95;0.95;;;;;;;;;;5066704;27;57744;-67
2023/05/09 09:00:49;;;;;;;1.00;1.00;;;;;;;;;;5067761;27;58360;-67
2023/05/09 09:03:15;;;;;;;1.63;1.52;;;;;;;;;;5066431;27;58111;-67
2023/05/09 09:05:41;;;;;;;0.80;0.80;;;;;;;;;;5066805;27;58246;-67
2023/05/09 09:08:06;;;;;;;0.85;0.85;;;;;;;;;;5066383;27;59337;-67
2023/05/09 09:10:32;;;;;;;0.98;0.90;;;;;;;;;;5067313;27;57908;-67
2023/05/09 09:12:57;;;;;;;1.08;1.08;;;;;;;;;;5067926;27;58229;-65
2023/05/09 09:15:25;;;;;;;1.20;1.10;;;;;;;;;;5064965;27;57757;-66
2023/05/09 09:17:52;;;;;;;1.65;1.55;;;;;;;;;;5067099;27;57868;-67
2023/05/09 09:20:19;;;;;;;1.00;1.00;;;;;;;;;;5065359;27;58370;-67
2023/05/09 09:22:46;;;;;;;1.42;1.33;;;;;;;;;;5067082;27;58166;-67
2023/05/09 09:25:11;;;;;;;1.20;1.10;;;;;;;;;;5066009;27;58173;-67
2023/05/09 09:27:37;;;;;;;1.27;1.27;;;;;;;;;;5066471;27;58014;-67
2023/05/09 09:30:05;;;;;;;1.13;1.13;;;;;;;;;;5066606;27;58156;-67
2023/05/09 09:32:34;;;;;;;0.98;0.98;;;;;;;;;;5064599;27;59028;-67
2023/05/09 09:35:05;;;;;;;1.70;1.13;;;;;;;;;;5065534;27;58266;-67
2023/05/09 09:37:32;;;;;;;1.38;1.27;;;;;;;;;;5062310;27;58075;-67
2023/05/09 09:39:57;;;;;;;0.90;0.90;;;;;;;;;;5066640;27;58224;-67
2023/05/09 09:42:22;;;;;;;1.40;1.30;;;;;;;;;;5066521;27;57847;-64
2023/05/09 09:45:11;;;;;;;1.33;1.23;;;;;;;;;;5065343;27;58346;-67
2023/05/09 09:47:36;;;;;;;1.20;1.10;;;;;;;;;;5057234;27;58387;-68
2023/05/09 09:50:14;;;;;;;1.25;1.17;;;;;;;;;;5065806;27;58585;-67
2023/05/09 09:52:49;;;;;;;1.35;1.25;;;;;;;;;;5065501;27;58093;-67
2023/05/09 09:55:14;;;;;;;1.15;1.15;;;;;;;;;;5064534;27;58486;-67
2023/05/09 09:57:43;;;;;;;1.40;1.30;;;;;;;;;;5067177;27;58448;-67
2023/05/09 10:00:09;;;;;;;0.80;0.80;;;;;;;;;;5061780;27;59875;-67
2023/05/09 10:02:34;;;;;;;1.38;1.27;;;;;;;;;;5065224;27;58187;-67
2023/05/09 10:05:05;;;;;;;1.07;1.07;;;;;;;;;;5065769;27;58709;-67
2023/05/09 10:07:32;;;;;;;1.27;0.85;;;;;;;;;;5062970;27;58572;-67
2023/05/09 10:09:57;;;;;;;1.08;1.00;;;;;;;;;;5065774;27;57854;-67
2023/05/09 10:12:22;;;;;;;0.90;0.90;;;;;;;;;;5065294;27;57731;-67
2023/05/09 10:14:47;;;;;;;0.90;0.90;;;;;;;;;;5064442;27;59100;-67
2023/05/09 10:17:13;;;;;;;1.67;1.57;;;;;;;;;;5066448;27;58433;-67
2023/05/09 10:19:41;;;;;;;1.58;1.35;;;;;;;;;;5064567;27;58233;-68
2023/05/09 10:22:08;;;;;;;1.70;1.60;;;;;;;;;;5063255;27;58129;-67
2023/05/09 10:24:38;;;;;;;1.50;1.40;;;;;;;;;;5065812;27;57640;-67
2023/05/09 10:27:05;;;;;;;0.82;0.82;;;;;;;;;;5064078;27;58261;-67
2023/05/09 10:29:34;;;;;;;1.08;1.02;;;;;;;;;;5065168;27;62573;-67
2023/05/09 10:32:05;;;;;;;1.40;1.30;;;;;;;;;;5065034;27;58573;-67
2023/05/09 10:34:31;;;;;;;1.40;1.30;;;;;;;;;;5063742;27;57981;-67
2023/05/09 10:36:59;;;;;;;1.40;1.23;;;;;;;;;;5065406;27;58114;-67
2023/05/09 10:39:24;;;;;;;1.30;1.20;;;;;;;;;;5064356;27;57640;-67
2023/05/09 10:41:50;;;;;;;2.10;1.60;;;;;;;;;;5063161;27;57834;-65
2023/05/09 10:44:15;;;;;;;0.93;0.93;;;;;;;;;;5065863;27;58031;-67
2023/05/09 10:46:40;;;;;;;1.13;1.13;;;;;;;;;;5064832;27;59785;-67
2023/05/09 10:49:06;;;;;;;1.20;1.10;;;;;;;;;;5065619;27;58198;-67
2023/05/09 10:51:31;;;;;;;0.93;0.93;;;;;;;;;;5066547;27;58245;-66
2023/05/09 10:53:57;;;;;;;1.45;1.35;;;;;;;;;;5064165;27;57869;-67
2023/05/09 10:56:23;;;;;;;1.73;1.63;;;;;;;;;;5065013;27;58191;-67
2023/05/09 10:58:48;;;;;;;0.80;0.80;;;;;;;;;;5065610;27;58574;-67
2023/05/09 11:01:13;;;;;;;1.27;1.17;;;;;;;;;;5063776;27;57774;-67
2023/05/09 11:03:51;;;;;;;1.50;1.40;;;;;;;;;;5065927;28;58048;-67
2023/05/09 11:06:38;;;;;;;1.42;1.33;;;;;;;;;;5064541;27;58101;-67
2023/05/09 11:09:29;;;;;;;0.98;0.98;;;;;;;;;;5065968;27;58043;-67
2023/05/09 11:11:57;;;;;;;1.42;1.33;;;;;;;;;;5064669;27;58345;-67
2023/05/09 11:14:32;;;;;;;1.10;1.10;;;;;;;;;;5063737;27;58663;-67
2023/05/09 11:16:58;;;;;;;1.50;1.40;;;;;;;;;;5062471;27;58317;-67
2023/05/09 11:19:37;;;;;;;1.40;1.30;;;;;;;;;;5061542;27;58070;-67
2023/05/09 11:22:15;;;;;;;1.40;1.30;;;;;;;;;;5065758;27;57785;-67
2023/05/09 11:24:45;;;;;;;1.48;1.38;;;;;;;;;;5067689;27;58139;-67
2023/05/09 11:27:22;;;;;;;1.48;1.20;;;;;;;;;;5066821;27;58149;-67
2023/05/09 11:29:51;;;;;;;1.17;1.17;;;;;;;;;;5066751;27;58390;-68
2023/05/09 11:32:17;;;;;;;1.65;1.55;;;;;;;;;;5065043;27;59107;-67
2023/05/09 11:34:44;;;;;;;1.42;1.33;;;;;;;;;;5066409;27;58501;-67
2023/05/09 11:37:12;;;;;;;1.38;1.27;;;;;;;;;;5065021;27;57832;-67
2023/05/09 11:39:57;;;;;;;1.42;1.33;;;;;;;;;;5065727;27;58123;-67
2023/05/09 11:42:23;;;;;;;1.02;1.02;;;;;;;;;;5065644;27;58092;-67
2023/05/09 11:44:48;;;;;;;1.60;1.50;;;;;;;;;;5068008;27;58303;-67
2023/05/09 11:47:14;;;;;;;1.20;1.20;;;;;;;;;;5067707;27;57970;-67
2023/05/09 11:49:42;;;;;;;1.25;1.20;;;;;;;;;;5066851;27;58447;-67
2023/05/09 11:52:07;;;;;;;1.52;1.42;;;;;;;;;;5068581;27;58281;-67
2023/05/09 11:54:35;;;;;;;1.30;1.20;;;;;;;;;;5068229;27;59420;-67
2023/05/09 11:57:00;;;;;;;0.93;0.93;;;;;;;;;;5066539;27;58182;-67
2023/05/09 11:59:26;;;;;;;0.90;0.90;;;;;;;;;;5067294;27;58001;-67
2023/05/09 12:01:51;;;;;;;1.02;1.02;;;;;;;;;;5067652;27;58463;-67
2023/05/09 12:04:16;;;;;;;1.30;1.20;;;;;;;;;;5068266;27;57789;-67
2023/05/09 12:06:45;;;;;;;1.40;1.30;;;;;;;;;;5068653;27;57801;-67
2023/05/09 12:09:11;;;;;;;1.75;1.65;;;;;;;;;;5065600;27;58403;-67
2023/05/09 12:11:37;;;;;;;1.20;1.13;;;;;;;;;;5066002;27;57802;-67
2023/05/09 12:14:02;;;;;;;1.10;1.02;;;;;;;;;;5066262;27;58113;-66
2023/05/09 12:16:27;;;;;;;1.10;1.10;;;;;;;;;;5068334;27;58175;-67
2023/05/09 12:18:52;;;;;;;1.35;1.20;;;;;;;;;;5068292;27;58120;-67
2023/05/09 12:21:18;;;;;;;1.10;1.10;;;;;;;;;;5066309;27;58354;-67
2023/05/09 12:23:43;;;;;;;1.05;1.05;;;;;;;;;;5067519;27;57598;-67
2023/05/09 12:26:09;;;;;;;1.30;1.25;;;;;;;;;;5067178;27;58160;-67
2023/05/09 12:28:35;;;;;;;1.58;1.48;;;;;;;;;;5066614;27;58548;-67
2023/05/09 12:31:00;;;;;;;1.17;1.08;;;;;;;;;;5069418;27;58164;-67
2023/05/09 12:33:26;;;;;;;1.00;1.00;;;;;;;;;;5065794;27;60830;-67
2023/05/09 12:36:02;;;;;;;1.20;1.10;;;;;;;;;;5063861;27;58371;-67
2023/05/09 12:38:27;;;;;;;1.60;1.50;;;;;;;;;;5065708;27;58097;-67
2023/05/09 12:40:59;;;;;;;1.20;1.10;;;;;;;;;;5066158;27;59460;-71
2023/05/09 12:43:25;;;;;;;1.20;1.20;;;;;;;;;;5066848;27;57748;-66
2023/05/09 12:45:52;;;;;;;1.60;1.50;;;;;;;;;;5067937;28;57987;-66
2023/05/09 12:48:19;;;;;;;2.40;1.20;;;;;;;;;;5065166;27;58257;-68
2023/05/09 12:50:45;;;;;;;2.28;1.23;;;;;;;;;;5064003;27;58507;-65
2023/05/09 12:53:11;;;;;;;1.35;1.10;;;;;;;;;;5064843;27;57899;-66
2023/05/09 12:55:42;;;;;;;1.90;1.57;;;;;;;;;;5066561;27;58267;-64
2023/05/09 12:58:08;;;;;;;1.40;1.30;;;;;;;;;;5064721;27;57952;-69
2023/05/09 13:00:43;;;;;;;1.87;1.77;;;;;;;;;;5065864;27;58060;-71
2023/05/09 13:03:21;;;;;;;2.90;1.65;;;;;;;;;;5062173;27;58276;-69
2023/05/09 13:05:56;;;;;;;1.70;1.60;;;;;;;;;;5065932;27;58185;-69
2023/05/09 13:08:21;;;;;;;1.63;1.45;;;;;;;;;;5065098;27;58530;-64
2023/05/09 13:10:47;;;;;;;2.00;1.20;;;;;;;;;;5065194;27;58160;-67
2023/05/09 13:13:15;;;;;;;1.40;1.30;;;;;;;;;;5063778;27;57835;-68
2023/05/09 13:15:41;;;;;;;1.48;1.38;;;;;;;;;;5065583;27;58002;-69
2023/05/09 13:18:07;;;;;;;1.75;1.65;;;;;;;;;;5066671;27;58082;-71
2023/05/09 13:20:32;;;;;;;5.87;2.43;;;;;;;;;;5066645;27;58150;-67
2023/05/09 13:22:57;;;;;;;1.80;1.40;;;;;;;;;;5066385;27;58005;-64
2023/05/09 13:25:23;;;;;;;1.30;1.08;;;;;;;;;;5067347;27;58085;-66
2023/05/09 13:27:48;;;;;;;3.58;1.35;;;;;;;;;;5066135;27;58309;-68
2023/05/09 13:30:14;;;;;;;2.25;1.17;;;;;;;;;;5066369;27;58005;-68
2023/05/09 13:32:39;;;;;;;4.13;1.40;;;;;;;;;;5063766;27;58221;-68
2023/05/09 13:35:06;;;;;;;2.40;1.25;;;;;;;;;;5064913;27;58745;-68
2023/05/09 13:37:32;;;;;;;2.30;1.73;;;;;;;;;;5066480;27;57934;-67
2023/05/09 13:39:57;;;;;;;3.47;1.50;;;;;;;;;;5066588;27;59211;-68
2023/05/09 13:42:22;;;;;;;1.53;1.40;;;;;;;;;;5066395;27;58177;-68
2023/05/09 13:44:47;;;;;;;4.67;1.90;;;;;;;;;;5064019;27;58392;-68
2023/05/09 13:47:12;;;;;;;1.73;1.63;;;;;;;;;;5064771;27;58127;-68
2023/05/09 13:49:38;;;;;;;1.20;1.10;;;;;;;;;;5066604;27;58086;-68
2023/05/09 13:52:03;;;;;;;1.55;1.45;;;;;;;;;;5066336;27;58409;-68
2023/05/09 13:54:33;;;;;;;1.48;1.20;;;;;;;;;;5065467;27;58150;-68
2023/05/09 13:57:00;;;;;;;1.95;1.50;;;;;;;;;;5064677;27;57915;-68
2023/05/09 13:59:25;;;;;;;1.55;1.08;;;;;;;;;;5065197;27;58494;-70
2023/05/09 14:01:50;;;;;;;1.33;1.23;;;;;;;;;;5065495;27;58330;-70
2023/05/09 14:04:15;;;;;;;1.30;1.10;;;;;;;;;;5065890;27;59966;-70
2023/05/09 14:06:46;;;;;;;3.08;1.67;;;;;;;;;;5066439;28;58295;-70
2023/05/09 14:09:11;;;;;;;1.20;1.17;;;;;;;;;;5066064;27;58105;-70
2023/05/09 14:11:37;;;;;;;1.25;1.15;;;;;;;;;;5065130;27;58102;-70
2023/05/09 14:14:02;;;;;;;1.50;1.40;;;;;;;;;;5064580;27;57762;-67
2023/05/09 14:16:27;;;;;;;1.45;1.35;;;;;;;;;;5064946;27;57889;-71
2023/05/09 14:18:52;;;;;;;1.70;1.40;;;;;;;;;;5066620;27;57712;-70
2023/05/09 14:21:17;;;;;;;1.42;1.33;;;;;;;;;;5066281;27;58893;-71
2023/05/09 14:23:43;;;;;;;1.03;1.03;;;;;;;;;;5065450;27;58063;-70
2023/05/09 14:26:08;;;;;;;3.83;1.20;;;;;;;;;;5063748;27;58323;-67
2023/05/09 14:28:33;;;;;;;1.30;1.20;;;;;;;;;;5065497;27;57966;-67
2023/05/09 14:30:58;;;;;;;1.47;1.37;;;;;;;;;;5067079;27;58246;-65
2023/05/09 14:33:24;;;;;;;1.37;1.27;;;;;;;;;;5064051;27;57900;-67
2023/05/09 14:35:50;;;;;;;0.90;0.90;;;;;;;;;;5065700;27;57818;-68
2023/05/09 14:38:15;;;;;;;1.50;1.40;;;;;;;;;;5065967;27;58273;-67